createdAt,value
2022-11-29T07:44:06.420Z,20.21
2022-11-29T07:46:34.951Z,20.20
2022-11-29T07:49:03.392Z,20.21
2022-11-29T07:51:32.346Z,20.21
2022-11-29T07:54:01.136Z,20.22
2022-11-29T07:56:29.869Z,20.23
2022-11-29T07:58:59.986Z,20.27
2022-11-29T08:01:28.451Z,20.27
2022-11-29T08:03:56.920Z,20.31
2022-11-29T08:06:26.383Z,20.32
2022-11-29T08:08:54.844Z,20.34
2022-11-29T08:11:23.305Z,20.36
2022-11-29T08:13:51.724Z,20.38
2022-11-29T08:16:21.529Z,20.39
2022-11-29T08:18:50.046Z,20.40
2022-11-29T08:21:18.529Z,20.39
2022-11-29T08:23:47.531Z,20.39
2022-11-29T08:26:17.317Z,20.39
2022-11-29T08:28:45.946Z,20.41
2022-11-29T08:31:14.448Z,20.42
2022-11-29T08:33:44.646Z,20.46
2022-11-29T08:36:15.235Z,20.45
2022-11-29T08:38:44.191Z,20.49
2022-11-29T08:41:14.547Z,20.51
2022-11-29T08:43:42.952Z,20.53
2022-11-29T08:46:18.039Z,20.55
2022-11-29T08:48:49.141Z,20.59
2022-11-29T08:51:17.892Z,20.58
2022-11-29T08:53:46.487Z,20.59
2022-11-29T08:57:04.309Z,20.60
2022-11-29T08:59:07.061Z,20.61
2022-11-29T09:01:35.639Z,20.62
2022-11-29T09:04:07.606Z,20.63
2022-11-29T09:06:40.140Z,20.62
2022-11-29T09:09:08.971Z,20.63
2022-11-29T09:11:37.790Z,20.62
2022-11-29T09:14:07.740Z,20.62
2022-11-29T09:16:38.108Z,20.61
2022-11-29T09:19:08.712Z,20.60
2022-11-29T09:21:37.593Z,20.60
2022-11-29T09:24:08.007Z,20.60
2022-11-29T09:26:37.974Z,20.60
2022-11-29T09:29:07.751Z,20.59
2022-11-29T09:31:36.404Z,20.58
2022-11-29T09:34:04.845Z,20.57
2022-11-29T09:36:34.635Z,20.57
2022-11-29T09:39:03.758Z,20.57
2022-11-29T09:41:53.330Z,20.57
2022-11-29T09:44:35.827Z,20.58
2022-11-29T09:47:23.663Z,20.58
2022-11-29T09:50:02.304Z,20.57
2022-11-29T09:52:42.949Z,20.56
2022-11-29T09:55:29.482Z,20.55
2022-11-29T09:58:03.728Z,20.55
2022-11-29T10:00:36.622Z,20.52
2022-11-29T10:03:15.034Z,20.48
2022-11-29T10:05:47.615Z,20.45
2022-11-29T10:08:25.496Z,20.42
2022-11-29T10:10:58.935Z,20.39
2022-11-29T10:13:31.842Z,20.37
2022-11-29T10:16:06.617Z,20.36
2022-11-29T10:18:39.029Z,20.33
2022-11-29T10:21:13.598Z,20.33
2022-11-29T10:23:48.119Z,20.31
2022-11-29T10:26:18.021Z,20.31
2022-11-29T10:28:48.658Z,20.29
2022-11-29T10:31:22.091Z,20.29
2022-11-29T10:33:51.254Z,20.29
2022-11-29T10:36:27.755Z,20.29
2022-11-29T10:39:00.562Z,20.27
2022-11-29T10:41:29.271Z,20.28
2022-11-29T10:43:59.673Z,20.27
2022-11-29T10:46:31.846Z,20.28
2022-11-29T10:49:03.689Z,20.26
2022-11-29T10:51:32.959Z,20.25
2022-11-29T10:54:19.161Z,20.24
2022-11-29T10:56:48.978Z,20.24
2022-11-29T10:59:22.295Z,20.24
2022-11-29T11:01:51.873Z,20.17
2022-11-29T11:04:29.440Z,20.17
2022-11-29T11:07:01.279Z,20.15
2022-11-29T11:09:36.366Z,20.16
2022-11-29T11:12:08.546Z,20.18
2022-11-29T11:14:38.737Z,20.19
2022-11-29T11:17:22.281Z,20.20
2022-11-29T11:19:57.341Z,20.22
2022-11-29T11:22:27.332Z,20.23
2022-11-29T11:25:02.914Z,20.23
2022-11-29T11:27:34.264Z,20.22
2022-11-29T11:30:03.414Z,20.21
2022-11-29T11:32:31.962Z,20.20
2022-11-29T11:35:02.795Z,20.19
2022-11-29T11:37:33.421Z,20.18
2022-11-29T11:40:26.320Z,20.18
2022-11-29T11:42:57.380Z,20.17
2022-11-29T11:45:34.970Z,20.15
2022-11-29T11:48:11.634Z,20.14
2022-11-29T11:50:45.321Z,20.11
2022-11-29T11:53:22.272Z,20.10
2022-11-29T11:56:01.739Z,20.10
2022-11-29T11:58:32.235Z,20.08
2022-11-29T12:01:14.398Z,20.08
2022-11-29T12:03:52.716Z,20.07
2022-11-29T12:06:47.197Z,20.08
2022-11-29T12:09:24.523Z,20.07
2022-11-29T12:12:05.328Z,20.07
2022-11-29T12:14:52.776Z,20.07
2022-11-29T12:17:31.926Z,20.07
2022-11-29T12:20:12.950Z,20.07
2022-11-29T12:22:49.702Z,20.06
2022-11-29T12:25:22.645Z,20.04
2022-11-29T12:27:52.707Z,20.04
2022-11-29T12:30:21.133Z,20.04
2022-11-29T12:33:02.532Z,20.00
2022-11-29T12:35:54.827Z,20.02
2022-11-29T12:38:44.190Z,20.01
2022-11-29T12:41:30.336Z,20.02
2022-11-29T12:44:06.171Z,20.02
2022-11-29T12:46:35.551Z,19.99
2022-11-29T12:49:17.002Z,19.98
2022-11-29T12:51:56.091Z,19.97
2022-11-29T12:54:38.401Z,19.97
2022-11-29T12:57:16.591Z,19.96
2022-11-29T13:00:09.045Z,19.94
2022-11-29T13:02:53.653Z,19.94
2022-11-29T13:05:35.247Z,19.94
2022-11-29T13:08:24.505Z,19.95
2022-11-29T13:11:03.655Z,19.93
2022-11-29T13:13:40.450Z,19.93
2022-11-29T13:16:30.841Z,19.93
2022-11-29T13:19:07.531Z,19.92
2022-11-29T13:21:44.660Z,19.92
2022-11-29T13:24:20.859Z,19.91
2022-11-29T13:26:50.563Z,19.90
2022-11-29T13:29:20.037Z,19.90
2022-11-29T13:31:50.908Z,19.89
2022-11-29T13:34:25.601Z,19.89
2022-11-29T13:37:05.672Z,19.89
2022-11-29T13:39:49.027Z,19.88
2022-11-29T13:42:22.986Z,19.88
2022-11-29T13:44:56.625Z,19.87
2022-11-29T13:47:26.729Z,19.88
2022-11-29T13:50:02.180Z,19.87
2022-11-29T13:52:38.619Z,19.86
2022-11-29T13:55:18.382Z,19.87
2022-11-29T14:00:50.980Z,19.86
2022-11-29T14:03:33.404Z,19.86
2022-11-29T14:06:12.647Z,19.85
2022-11-29T14:09:18.476Z,19.85
2022-11-29T14:11:50.397Z,19.85
2022-11-29T14:14:26.088Z,19.84
2022-11-29T14:16:58.711Z,19.83
2022-11-29T14:19:33.709Z,19.82
2022-11-29T14:22:30.317Z,19.84
2022-11-29T14:25:49.619Z,19.84
2022-11-29T14:28:30.295Z,19.83
2022-11-29T14:31:01.433Z,19.84
2022-11-29T14:33:39.213Z,19.86
2022-11-29T14:36:22.105Z,19.87
2022-11-29T14:38:57.916Z,19.89
2022-11-29T14:41:34.088Z,19.91
2022-11-29T14:44:18.912Z,19.93
2022-11-29T14:46:48.853Z,19.95
2022-11-29T14:49:23.454Z,19.97
2022-11-29T14:52:21.507Z,20.01
2022-11-29T14:55:09.339Z,20.03
2022-11-29T14:58:18.282Z,20.04
2022-11-29T15:01:01.765Z,20.05
2022-11-29T15:03:43.459Z,20.07
2022-11-29T15:06:16.496Z,20.08
2022-11-29T15:08:58.423Z,20.09
2022-11-29T15:11:36.487Z,20.10
2022-11-29T15:14:07.943Z,20.10
2022-11-29T15:17:10.455Z,20.11
2022-11-29T15:20:15.170Z,20.11
2022-11-29T15:22:52.348Z,20.14
2022-11-29T15:25:24.480Z,20.14
2022-11-29T15:27:54.746Z,20.15
2022-11-29T15:30:30.971Z,20.14
2022-11-29T15:33:01.238Z,20.15
2022-11-29T15:35:30.044Z,20.16
2022-11-29T15:37:58.609Z,20.14
2022-11-29T15:40:35.352Z,20.13
2022-11-29T15:43:16.717Z,20.13
2022-11-29T15:45:48.581Z,20.13
2022-11-29T15:48:20.139Z,20.13
2022-11-29T15:50:57.457Z,20.13
2022-11-29T15:53:30.063Z,20.13
2022-11-29T15:56:03.049Z,20.12
2022-11-29T15:58:34.561Z,20.11
2022-11-29T16:01:04.425Z,20.12
2022-11-29T16:03:36.545Z,20.11
2022-11-29T16:06:10.198Z,20.11
2022-11-29T16:08:43.389Z,20.15
2022-11-29T16:11:18.116Z,20.21
2022-11-29T16:14:14.454Z,20.24
2022-11-29T16:16:45.995Z,20.27
2022-11-29T16:19:31.701Z,20.29
2022-11-29T16:22:09.836Z,20.30
2022-11-29T16:24:39.518Z,20.33
2022-11-29T16:27:09.506Z,20.32
2022-11-29T16:29:44.918Z,20.37
2022-11-29T16:32:15.801Z,20.37
2022-11-29T16:34:45.503Z,20.37
2022-11-29T16:37:19.569Z,20.36
2022-11-29T16:39:50.631Z,20.37
2022-11-29T16:42:25.942Z,20.38
2022-11-29T16:45:28.925Z,20.38
2022-11-29T16:47:59.607Z,20.40
2022-11-29T16:50:29.788Z,20.39
2022-11-29T16:53:34.823Z,20.40
2022-11-29T16:56:03.308Z,20.42
2022-11-29T16:58:32.009Z,20.45
2022-11-29T17:01:00.514Z,20.45
2022-11-29T17:03:30.509Z,20.47
2022-11-29T17:05:59.201Z,20.47
2022-11-29T17:08:28.000Z,20.49
2022-11-29T17:10:56.464Z,20.48
2022-11-29T17:13:25.181Z,20.49
2022-11-29T17:15:53.585Z,20.50
2022-11-29T17:18:22.318Z,20.49
2022-11-29T17:20:55.527Z,20.49
2022-11-29T17:23:24.473Z,20.49
2022-11-29T17:26:00.140Z,20.49
2022-11-29T17:28:28.986Z,20.48
2022-11-29T17:30:57.547Z,20.49
2022-11-29T17:33:25.987Z,20.49
2022-11-29T17:35:55.807Z,20.50
2022-11-29T17:38:24.284Z,20.50
2022-11-29T17:40:52.694Z,20.49
2022-11-29T17:43:21.101Z,20.49
2022-11-29T17:45:49.599Z,20.50
2022-11-29T17:48:18.660Z,20.50
2022-11-29T17:50:47.075Z,20.50
2022-11-29T17:53:16.841Z,20.50
2022-11-29T17:55:45.221Z,20.51
2022-11-29T17:58:14.066Z,20.48
2022-11-29T18:00:42.533Z,20.46
2022-11-29T18:03:11.007Z,20.43
2022-11-29T18:05:39.483Z,20.42
2022-11-29T18:08:08.123Z,20.41
2022-11-29T18:10:37.931Z,20.42
2022-11-29T18:13:06.358Z,20.41
2022-11-29T18:15:34.827Z,20.41
2022-11-29T18:18:03.279Z,20.41
2022-11-29T18:20:31.728Z,20.40
2022-11-29T18:23:04.997Z,20.39
2022-11-29T18:25:39.174Z,20.39
2022-11-29T18:28:11.235Z,20.37
2022-11-29T18:30:39.780Z,20.38
2022-11-29T18:33:08.235Z,20.37
2022-11-29T18:35:36.687Z,20.36
2022-11-29T18:38:20.422Z,20.35
2022-11-29T18:40:48.862Z,20.35
2022-11-29T18:43:18.606Z,20.34
2022-11-29T18:45:47.208Z,20.33
2022-11-29T18:48:15.652Z,20.34
2022-11-29T18:50:44.057Z,20.32
2022-11-29T18:53:13.805Z,20.31
2022-11-29T18:55:42.382Z,20.33
2022-11-29T18:58:10.797Z,20.32
2022-11-29T19:00:40.818Z,20.34
2022-11-29T19:03:09.317Z,20.34
2022-11-29T19:05:37.732Z,20.33
2022-11-29T19:08:06.352Z,20.32
2022-11-29T19:10:34.758Z,20.33
2022-11-29T19:13:03.126Z,20.32
2022-11-29T19:15:31.583Z,20.34
2022-11-29T19:18:01.366Z,20.35
2022-11-29T19:20:30.797Z,20.34
2022-11-29T19:23:02.396Z,20.35
2022-11-29T19:25:30.820Z,20.34
2022-11-29T19:27:59.280Z,20.34
2022-11-29T19:30:27.749Z,20.35
2022-11-29T19:32:56.591Z,20.35
2022-11-29T19:35:26.416Z,20.34
2022-11-29T19:37:55.087Z,20.34
2022-11-29T19:40:23.574Z,20.34
2022-11-29T19:42:52.012Z,20.35
2022-11-29T19:45:21.825Z,20.34
2022-11-29T19:47:50.600Z,20.34
2022-11-29T19:50:19.222Z,20.35
2022-11-29T19:52:49.049Z,20.34
2022-11-29T19:55:17.503Z,20.34
2022-11-29T19:57:45.884Z,20.35
2022-11-29T20:00:15.406Z,20.35
2022-11-29T20:02:43.989Z,20.36
2022-11-29T20:05:12.984Z,20.36
2022-11-29T20:07:41.459Z,20.37
2022-11-29T20:10:12.180Z,20.37
2022-11-29T20:12:40.659Z,20.38
2022-11-29T20:15:09.699Z,20.38
2022-11-29T20:17:38.383Z,20.37
2022-11-29T20:20:08.295Z,20.38
2022-11-29T20:22:37.179Z,20.38
2022-11-29T20:25:06.649Z,20.38
2022-11-29T20:27:37.022Z,20.39
2022-11-29T20:30:06.377Z,20.40
2022-11-29T20:32:35.991Z,20.41
2022-11-29T20:35:05.063Z,20.42
2022-11-29T20:37:54.086Z,20.44
2022-11-29T20:40:29.011Z,20.44
2022-11-29T20:43:08.103Z,20.41
2022-11-29T20:45:37.534Z,20.45
2022-11-29T20:48:16.091Z,20.46
2022-11-29T20:50:47.963Z,20.46
2022-11-29T20:53:30.909Z,20.47
2022-11-29T20:55:59.957Z,20.47
2022-11-29T20:58:30.075Z,20.46
2022-11-29T21:00:58.911Z,20.47
2022-11-29T21:03:28.388Z,20.48
2022-11-29T21:05:58.027Z,20.48
2022-11-29T21:08:27.289Z,20.48
2022-11-29T21:11:01.751Z,20.47
2022-11-29T21:13:34.178Z,20.47
2022-11-29T21:16:03.497Z,20.47
2022-11-29T21:18:33.775Z,20.46
2022-11-29T21:21:14.943Z,20.46
2022-11-29T21:23:55.394Z,20.46
2022-11-29T21:26:26.828Z,20.46
2022-11-29T21:29:08.191Z,20.46
2022-11-29T21:31:37.460Z,20.44
2022-11-29T21:34:06.037Z,20.45
2022-11-29T21:36:34.444Z,20.45
2022-11-29T21:39:05.276Z,20.45
2022-11-29T21:41:33.926Z,20.45
2022-11-29T21:44:08.061Z,20.42
2022-11-29T21:46:36.974Z,20.42
2022-11-29T21:49:06.148Z,20.41
2022-11-29T21:51:34.839Z,20.41
2022-11-29T21:54:03.383Z,20.41
2022-11-29T21:56:31.846Z,20.41
2022-11-29T21:59:00.313Z,20.41
2022-11-29T22:01:30.469Z,20.41
2022-11-29T22:03:58.970Z,20.40
2022-11-29T22:06:29.181Z,20.41
2022-11-29T22:08:58.018Z,20.40
2022-11-29T22:11:34.104Z,20.41
2022-11-29T22:14:17.977Z,20.40
2022-11-29T22:16:49.534Z,20.41
2022-11-29T22:19:19.592Z,20.41
2022-11-29T22:21:49.696Z,20.42
2022-11-29T22:24:19.630Z,20.42
2022-11-29T22:26:48.765Z,20.42
2022-11-29T22:29:17.498Z,20.42
2022-11-29T22:31:48.753Z,20.45
2022-11-29T22:34:17.759Z,20.44
2022-11-29T22:36:46.705Z,20.44
2022-11-29T22:39:15.715Z,20.44
2022-11-29T22:41:46.110Z,20.44
2022-11-29T22:44:17.929Z,20.45
2022-11-29T22:46:47.782Z,20.45
2022-11-29T22:49:16.499Z,20.45
2022-11-29T22:51:44.971Z,20.45
2022-11-29T22:54:15.328Z,20.45
2022-11-29T22:56:45.622Z,20.45
2022-11-29T22:59:14.952Z,20.45
2022-11-29T23:01:43.960Z,20.44
2022-11-29T23:04:14.105Z,20.45
2022-11-29T23:06:44.098Z,20.44
2022-11-29T23:09:16.554Z,20.44
2022-11-29T23:11:46.579Z,20.44
2022-11-29T23:14:14.989Z,20.42
2022-11-29T23:16:43.509Z,20.42
2022-11-29T23:19:12.246Z,20.41
2022-11-29T23:21:44.584Z,20.41
2022-11-29T23:24:13.513Z,20.39
2022-11-29T23:26:44.181Z,20.40
2022-11-29T23:29:14.623Z,20.40
2022-11-29T23:31:43.392Z,20.41
2022-11-29T23:34:11.903Z,20.41
2022-11-29T23:36:40.364Z,20.41
2022-11-29T23:39:10.359Z,20.40
2022-11-29T23:41:38.871Z,20.40
2022-11-29T23:44:08.699Z,20.41
2022-11-29T23:46:37.382Z,20.41
2022-11-29T23:49:05.864Z,20.42
2022-11-29T23:51:34.316Z,20.42
2022-11-29T23:54:02.709Z,20.41
2022-11-29T23:56:35.214Z,20.43
2022-11-29T23:59:03.768Z,20.42
